createdAt,value
2018-07-07T00:00:11.138Z,16.95
2018-07-07T00:01:11.187Z,16.92
2018-07-07T00:02:11.269Z,16.92
2018-07-07T00:03:11.282Z,16.90
2018-07-07T00:04:11.331Z,16.90
2018-07-07T00:05:11.380Z,16.81
2018-07-07T00:06:11.429Z,16.89
2018-07-07T00:07:11.510Z,16.88
2018-07-07T00:08:11.528Z,16.89
2018-07-07T00:09:11.605Z,16.88
2018-07-07T00:10:11.636Z,16.88
2018-07-07T00:11:11.679Z,16.86
2018-07-07T00:12:11.730Z,16.90
2018-07-07T00:13:11.776Z,16.90
2018-07-07T00:14:11.850Z,16.88
2018-07-07T00:15:11.875Z,16.90
2018-07-07T00:16:11.927Z,16.92
2018-07-07T00:17:11.976Z,16.95
2018-07-07T00:18:12.051Z,16.95
2018-07-07T00:19:12.108Z,16.89
2018-07-07T00:20:12.123Z,16.88
2018-07-07T00:21:12.174Z,16.89
2018-07-07T00:22:12.221Z,16.96
2018-07-07T00:23:12.303Z,16.90
2018-07-07T00:24:12.320Z,16.88
2018-07-07T00:25:12.370Z,16.86
2018-07-07T00:26:12.419Z,16.90
2018-07-07T00:27:12.548Z,16.92
2018-07-07T00:28:12.544Z,16.88
2018-07-07T00:29:12.567Z,16.86
2018-07-07T00:30:12.616Z,16.93
2018-07-07T00:31:12.668Z,16.88
2018-07-07T00:32:12.717Z,16.90
2018-07-07T00:33:12.795Z,16.90
2018-07-07T00:34:12.817Z,16.90
2018-07-07T00:35:13.107Z,16.86
2018-07-07T00:36:12.917Z,16.74
2018-07-07T00:37:12.962Z,16.80
2018-07-07T00:38:13.034Z,16.75
2018-07-07T00:39:13.065Z,16.75
2018-07-07T00:40:13.115Z,16.74
2018-07-07T00:41:13.185Z,16.86
2018-07-07T00:42:13.209Z,16.83
2018-07-07T00:43:13.263Z,16.85
2018-07-07T00:44:13.309Z,16.77
2018-07-07T00:45:13.357Z,16.80
2018-07-07T00:46:13.435Z,16.83
2018-07-07T00:47:13.458Z,16.83
2018-07-07T00:48:13.507Z,16.81
2018-07-07T00:49:13.589Z,16.80
2018-07-07T00:50:13.606Z,16.81
2018-07-07T00:51:13.679Z,16.83
2018-07-07T00:52:13.705Z,16.80
2018-07-07T00:53:13.755Z,16.88
2018-07-07T00:54:13.803Z,16.83
2018-07-07T00:55:13.879Z,16.77
2018-07-07T00:56:13.902Z,16.83
2018-07-07T00:57:13.955Z,16.78
2018-07-07T00:58:14.001Z,16.83
2018-07-07T00:59:14.055Z,16.81
2018-07-07T01:00:14.126Z,16.80
2018-07-07T01:01:14.148Z,16.77
2018-07-07T01:02:14.223Z,16.75
2018-07-07T01:03:14.248Z,16.77
2018-07-07T01:04:14.298Z,16.83
2018-07-07T01:05:14.345Z,16.77
2018-07-07T01:06:14.397Z,16.81
2018-07-07T01:07:14.493Z,16.81
2018-07-07T01:08:14.495Z,16.78
2018-07-07T01:09:14.545Z,16.83
2018-07-07T01:10:14.601Z,16.78
2018-07-07T01:11:14.656Z,16.75
2018-07-07T01:12:14.718Z,16.83
2018-07-07T01:13:14.767Z,16.77
2018-07-07T01:14:14.792Z,16.74
2018-07-07T01:15:14.841Z,16.75
2018-07-07T01:16:14.894Z,16.78
2018-07-07T01:17:14.938Z,16.78
2018-07-07T01:18:15.025Z,16.75
2018-07-07T01:19:15.039Z,16.80
2018-07-07T01:20:15.090Z,16.78
2018-07-07T01:21:15.136Z,16.81
2018-07-07T01:22:15.189Z,16.80
2018-07-07T01:23:15.273Z,16.83
2018-07-07T01:24:15.288Z,16.90
2018-07-07T01:25:15.333Z,16.88
2018-07-07T01:26:15.384Z,16.85
2018-07-07T01:27:15.434Z,16.89
2018-07-07T01:28:15.508Z,16.92
2018-07-07T01:29:15.535Z,16.93
2018-07-07T01:30:15.585Z,16.90
2018-07-07T01:31:15.633Z,16.92
2018-07-07T01:32:15.680Z,16.89
2018-07-07T01:33:15.768Z,16.86
2018-07-07T01:34:15.781Z,16.89
2018-07-07T01:35:15.831Z,16.78
2018-07-07T01:36:15.884Z,16.80
2018-07-07T01:37:15.926Z,16.83
2018-07-07T01:38:15.998Z,16.74
2018-07-07T01:39:16.026Z,16.74
2018-07-07T01:40:16.099Z,16.85
2018-07-07T01:41:16.179Z,16.86
2018-07-07T01:42:16.176Z,16.80
2018-07-07T01:43:16.223Z,16.81
2018-07-07T01:44:16.302Z,16.74
2018-07-07T01:45:16.321Z,16.77
2018-07-07T01:46:16.372Z,16.67
2018-07-07T01:47:16.428Z,16.83
2018-07-07T01:48:16.471Z,16.77
2018-07-07T01:49:16.553Z,16.70
2018-07-07T01:50:16.572Z,16.83
2018-07-07T01:51:16.618Z,16.80
2018-07-07T01:52:16.670Z,16.77
2018-07-07T01:53:16.719Z,16.78
2018-07-07T01:54:16.810Z,16.74
2018-07-07T01:55:16.816Z,16.77
2018-07-07T01:56:16.873Z,16.78
2018-07-07T01:57:16.917Z,16.70
2018-07-07T01:58:16.964Z,16.71
2018-07-07T01:59:17.046Z,16.80
2018-07-07T02:00:17.064Z,16.75
2018-07-07T02:01:17.115Z,16.74
2018-07-07T02:02:17.163Z,16.74
2018-07-07T02:03:17.215Z,16.77
2018-07-07T02:04:17.287Z,16.85
2018-07-07T02:05:17.314Z,16.80
2018-07-07T02:06:17.386Z,16.83
2018-07-07T02:07:17.414Z,16.74
2018-07-07T02:08:17.462Z,16.80
2018-07-07T02:09:17.508Z,16.83
2018-07-07T02:10:17.596Z,16.71
2018-07-07T02:11:17.631Z,16.80
2018-07-07T02:12:17.660Z,16.74
2018-07-07T02:13:17.713Z,16.83
2018-07-07T02:14:17.755Z,16.81
2018-07-07T02:15:17.810Z,16.83
2018-07-07T02:16:17.880Z,16.83
2018-07-07T02:17:17.927Z,16.93
2018-07-07T02:18:17.954Z,16.85
2018-07-07T02:19:18.007Z,16.89
2018-07-07T02:20:18.053Z,16.88
2018-07-07T02:21:18.126Z,16.96
2018-07-07T02:22:18.176Z,16.86
2018-07-07T02:23:18.200Z,16.98
2018-07-07T02:24:18.250Z,16.92
2018-07-07T02:25:18.298Z,16.95
2018-07-07T02:26:18.348Z,16.98
2018-07-07T02:27:18.436Z,16.98
2018-07-07T02:28:18.484Z,16.96
2018-07-07T02:29:18.496Z,16.99
2018-07-07T02:30:18.547Z,16.96
2018-07-07T02:31:18.595Z,16.95
2018-07-07T02:32:18.671Z,16.98
2018-07-07T02:33:18.696Z,17.03
2018-07-07T02:34:18.744Z,17.07
2018-07-07T02:35:18.793Z,16.99
2018-07-07T02:36:18.844Z,17.03
2018-07-07T02:37:18.927Z,17.07
2018-07-07T02:38:18.943Z,17.03
2018-07-07T02:39:18.994Z,17.06
2018-07-07T02:40:19.045Z,17.07
2018-07-07T02:41:19.090Z,17.07
2018-07-07T02:42:19.163Z,16.99
2018-07-07T02:43:19.217Z,17.07
2018-07-07T02:44:19.247Z,17.07
2018-07-07T02:45:19.290Z,17.08
2018-07-07T02:46:19.428Z,17.10
2018-07-07T02:47:19.394Z,17.03
2018-07-07T02:48:19.467Z,16.98
2018-07-07T02:49:19.490Z,16.93
2018-07-07T02:50:19.537Z,16.92
2018-07-07T02:51:19.590Z,16.92
2018-07-07T02:52:19.636Z,16.86
2018-07-07T02:53:19.717Z,16.92
2018-07-07T02:54:19.753Z,16.95
2018-07-07T02:55:19.785Z,16.95
2018-07-07T02:56:19.835Z,16.89
2018-07-07T02:57:19.885Z,16.98
2018-07-07T02:58:19.956Z,16.96
2018-07-07T02:59:20.006Z,16.96
2018-07-07T03:00:20.035Z,16.95
2018-07-07T03:01:20.083Z,16.95
2018-07-07T03:02:20.132Z,17.03
2018-07-07T03:03:20.220Z,17.03
2018-07-07T03:04:20.253Z,17.00
2018-07-07T03:05:20.278Z,17.00
2018-07-07T03:06:20.336Z,17.00
2018-07-07T03:07:20.379Z,16.96
2018-07-07T03:08:20.428Z,16.93
2018-07-07T03:09:20.502Z,16.95
2018-07-07T03:10:20.560Z,16.98
2018-07-07T03:11:20.578Z,16.96
2018-07-07T03:12:20.627Z,16.88
2018-07-07T03:13:20.679Z,16.90
2018-07-07T03:14:20.747Z,16.89
2018-07-07T03:15:20.780Z,16.77
2018-07-07T03:16:20.828Z,16.80
2018-07-07T03:17:20.873Z,16.81
2018-07-07T03:18:20.922Z,16.81
2018-07-07T03:19:20.995Z,16.83
2018-07-07T03:20:21.023Z,16.81
2018-07-07T03:21:21.094Z,16.77
2018-07-07T03:22:21.120Z,16.83
2018-07-07T03:23:21.172Z,16.78
2018-07-07T03:24:21.250Z,16.80
2018-07-07T03:25:21.272Z,16.78
2018-07-07T03:26:21.318Z,16.85
2018-07-07T03:27:21.372Z,16.86
2018-07-07T03:28:21.420Z,16.80
2018-07-07T03:29:21.497Z,16.80
2018-07-07T03:30:21.515Z,16.83
2018-07-07T03:31:21.616Z,16.81
2018-07-07T03:32:21.617Z,16.80
2018-07-07T03:33:21.666Z,16.77
2018-07-07T03:34:21.713Z,16.80
2018-07-07T03:35:21.765Z,16.83
2018-07-07T03:36:21.842Z,16.80
2018-07-07T03:37:21.864Z,16.83
2018-07-07T03:38:21.912Z,16.80
2018-07-07T03:39:21.969Z,16.68
2018-07-07T03:40:22.013Z,16.77
2018-07-07T03:41:22.085Z,16.74
2018-07-07T03:42:22.221Z,16.71
2018-07-07T03:43:22.163Z,16.68
2018-07-07T03:44:22.214Z,16.73
2018-07-07T03:45:22.260Z,16.67
2018-07-07T03:46:22.340Z,16.65
2018-07-07T03:47:22.380Z,16.58
2018-07-07T03:48:22.410Z,16.60
2018-07-07T03:49:22.460Z,16.63
2018-07-07T03:50:22.508Z,16.58
2018-07-07T03:51:22.578Z,16.55
2018-07-07T03:52:22.630Z,16.53
2018-07-07T03:53:22.656Z,16.49
2018-07-07T03:54:22.703Z,16.53
2018-07-07T03:55:22.755Z,16.50
2018-07-07T03:56:22.826Z,16.53
2018-07-07T03:57:22.880Z,16.58
2018-07-07T03:58:22.901Z,16.41
2018-07-07T03:59:22.959Z,16.49
2018-07-07T04:00:22.998Z,16.41
2018-07-07T04:01:23.049Z,16.41
2018-07-07T04:02:23.135Z,16.38
2018-07-07T04:03:23.147Z,16.41
2018-07-07T04:04:23.199Z,16.45
2018-07-07T04:05:23.247Z,16.45
2018-07-07T04:06:23.298Z,16.38
2018-07-07T04:07:23.375Z,16.42
2018-07-07T04:08:23.393Z,16.33
2018-07-07T04:09:23.441Z,16.35
2018-07-07T04:10:23.493Z,16.30
2018-07-07T04:11:23.543Z,16.35
2018-07-07T04:12:23.629Z,16.34
2018-07-07T04:13:23.640Z,16.31
2018-07-07T04:14:23.690Z,16.33
2018-07-07T04:15:23.738Z,16.31
2018-07-07T04:16:23.788Z,16.38
2018-07-07T04:17:23.862Z,16.31
2018-07-07T04:18:23.913Z,16.35
2018-07-07T04:19:23.937Z,16.35
2018-07-07T04:20:23.987Z,16.35
2018-07-07T04:21:24.038Z,16.31
2018-07-07T04:22:24.084Z,16.38
2018-07-07T04:23:24.158Z,16.34
2018-07-07T04:24:24.183Z,16.35
2018-07-07T04:25:24.232Z,16.35
2018-07-07T04:26:24.280Z,16.41
2018-07-07T04:27:24.332Z,16.34
2018-07-07T04:28:24.426Z,16.42
2018-07-07T04:29:24.431Z,16.33
2018-07-07T04:30:24.483Z,16.41
2018-07-07T04:31:24.527Z,16.41
2018-07-07T04:32:24.576Z,16.42
2018-07-07T04:33:24.663Z,16.38
2018-07-07T04:34:24.674Z,16.41
2018-07-07T04:35:24.747Z,16.44
2018-07-07T04:36:24.776Z,16.45
2018-07-07T04:37:24.826Z,16.42
2018-07-07T04:38:24.896Z,16.48
2018-07-07T04:39:24.933Z,16.42
2018-07-07T04:40:24.994Z,16.45
2018-07-07T04:41:25.023Z,16.56
2018-07-07T04:42:25.073Z,16.52
2018-07-07T04:43:25.118Z,16.58
2018-07-07T04:44:25.168Z,16.63
2018-07-07T04:45:25.239Z,16.60
2018-07-07T04:46:25.265Z,16.67
2018-07-07T04:47:25.315Z,16.63
2018-07-07T04:48:25.363Z,16.67
2018-07-07T04:49:25.442Z,16.65
2018-07-07T04:50:25.502Z,16.78
2018-07-07T04:51:25.512Z,16.75
2018-07-07T04:52:25.616Z,16.90
2018-07-07T04:53:25.612Z,16.89
2018-07-07T04:54:25.661Z,16.81
2018-07-07T04:55:25.743Z,16.92
2018-07-07T04:56:25.762Z,16.89
2018-07-07T04:57:25.809Z,16.98
2018-07-07T04:58:25.859Z,16.93
2018-07-07T04:59:25.906Z,16.98
2018-07-07T05:00:25.992Z,17.06
2018-07-07T05:01:26.008Z,17.06
2018-07-07T05:02:26.062Z,17.07
2018-07-07T05:03:26.103Z,17.13
2018-07-07T05:04:26.168Z,17.14
2018-07-07T05:05:26.227Z,17.15
2018-07-07T05:06:26.278Z,17.18
2018-07-07T05:07:26.304Z,17.13
2018-07-07T05:08:26.356Z,17.15
2018-07-07T05:09:26.404Z,17.18
2018-07-07T05:10:26.450Z,17.18
2018-07-07T05:11:26.524Z,17.25
2018-07-07T05:12:26.573Z,17.25
2018-07-07T05:13:26.598Z,17.22
2018-07-07T05:14:26.649Z,17.36
2018-07-07T05:15:26.708Z,17.36
2018-07-07T05:16:26.749Z,17.36
2018-07-07T05:17:26.820Z,17.32
2018-07-07T05:18:26.849Z,17.44
2018-07-07T05:19:26.896Z,17.41
2018-07-07T05:20:26.947Z,17.43
2018-07-07T05:21:26.994Z,17.53
2018-07-07T05:22:27.068Z,17.54
2018-07-07T05:23:27.096Z,17.50
2018-07-07T05:24:27.148Z,17.55
2018-07-07T05:25:27.192Z,17.62
2018-07-07T05:26:27.243Z,17.66
2018-07-07T05:27:27.317Z,17.66
2018-07-07T05:28:27.374Z,17.70
2018-07-07T05:29:27.394Z,17.70
2018-07-07T05:30:27.443Z,17.79
2018-07-07T05:31:27.493Z,17.85
2018-07-07T05:32:27.566Z,18.00
2018-07-07T05:33:27.591Z,17.97
2018-07-07T05:34:27.642Z,17.99
2018-07-07T05:35:27.692Z,18.06
2018-07-07T05:36:27.743Z,18.04
2018-07-07T05:37:27.813Z,18.13
2018-07-07T05:38:27.838Z,18.21
2018-07-07T05:39:28.340Z,18.25
2018-07-07T05:40:28.645Z,18.24
2018-07-07T05:41:27.988Z,18.24
2018-07-07T05:42:28.063Z,18.25
2018-07-07T05:43:28.092Z,18.19
2018-07-07T05:44:28.137Z,18.25
2018-07-07T05:45:28.187Z,18.39
2018-07-07T05:46:28.238Z,18.37
2018-07-07T05:47:28.317Z,18.40
2018-07-07T05:48:28.341Z,18.36
2018-07-07T05:49:28.411Z,18.43
2018-07-07T05:50:28.440Z,18.42
2018-07-07T05:51:28.488Z,18.47
2018-07-07T05:52:28.539Z,18.50
2018-07-07T05:53:28.589Z,18.55
2018-07-07T05:54:28.663Z,18.58
2018-07-07T05:55:29.653Z,18.55
2018-07-07T05:56:28.739Z,18.46
2018-07-07T05:57:29.378Z,18.43
2018-07-07T05:58:28.864Z,18.34
2018-07-07T05:59:28.888Z,18.36
2018-07-07T06:00:28.963Z,18.28
2018-07-07T06:01:28.988Z,18.29
2018-07-07T06:02:29.038Z,18.33
2018-07-07T06:03:29.090Z,18.33
2018-07-07T06:04:29.172Z,18.33
2018-07-07T06:05:29.213Z,18.37
2018-07-07T06:06:29.238Z,18.40
2018-07-07T06:07:29.291Z,18.59
2018-07-07T06:08:29.341Z,18.55
2018-07-07T06:09:29.413Z,18.72
2018-07-07T06:10:29.439Z,18.68
2018-07-07T06:11:29.516Z,18.74
2018-07-07T06:12:29.540Z,18.83
2018-07-07T06:13:29.587Z,18.70
2018-07-07T06:14:29.731Z,18.64
2018-07-07T06:15:29.691Z,18.72
2018-07-07T06:16:29.768Z,18.77
2018-07-07T06:17:29.788Z,18.70
2018-07-07T06:18:29.845Z,18.82
2018-07-07T06:19:29.922Z,18.90
2018-07-07T06:20:29.942Z,18.95
2018-07-07T06:21:29.989Z,19.02
2018-07-07T06:22:30.040Z,19.15
2018-07-07T06:23:30.124Z,19.15
2018-07-07T06:24:30.178Z,19.20
2018-07-07T06:25:30.191Z,19.14
2018-07-07T06:26:30.248Z,19.18
2018-07-07T06:27:30.291Z,19.21
2018-07-07T06:28:30.351Z,19.08
2018-07-07T06:29:30.423Z,19.02
2018-07-07T06:30:30.443Z,18.99
2018-07-07T06:31:30.492Z,19.10
2018-07-07T06:32:30.542Z,19.23
2018-07-07T06:33:30.596Z,19.36
2018-07-07T06:34:30.682Z,19.38
2018-07-07T06:35:31.356Z,19.32
2018-07-07T06:36:30.744Z,19.38
2018-07-07T06:37:30.796Z,19.43
2018-07-07T06:38:30.846Z,19.50
2018-07-07T06:39:30.921Z,19.66
2018-07-07T06:40:30.946Z,19.60
2018-07-07T06:41:30.998Z,19.57
2018-07-07T06:42:31.047Z,19.53
2018-07-07T06:43:31.096Z,19.66
2018-07-07T06:44:31.176Z,19.72
2018-07-07T06:45:31.201Z,19.58
2018-07-07T06:46:31.250Z,19.48
2018-07-07T06:47:31.300Z,19.39
2018-07-07T06:48:31.352Z,19.33
2018-07-07T06:49:31.438Z,19.29
2018-07-07T06:50:31.450Z,19.36
2018-07-07T06:51:31.504Z,19.36
2018-07-07T06:52:31.553Z,19.31
2018-07-07T06:53:31.602Z,19.39
2018-07-07T06:54:31.677Z,19.48
2018-07-07T06:55:31.706Z,19.42
2018-07-07T06:56:31.758Z,19.47
2018-07-07T06:57:31.806Z,19.58
2018-07-07T06:58:31.865Z,19.65
2018-07-07T06:59:31.952Z,19.65
2018-07-07T07:00:31.958Z,19.79
2018-07-07T07:01:32.008Z,19.95
2018-07-07T07:02:32.063Z,20.31
2018-07-07T07:03:32.127Z,21.16
2018-07-07T07:04:32.192Z,21.23
2018-07-07T07:05:32.211Z,21.45
2018-07-07T07:06:32.319Z,21.30
2018-07-07T07:07:32.314Z,21.23
2018-07-07T07:08:32.372Z,21.19
2018-07-07T07:09:32.444Z,21.17
2018-07-07T07:10:32.466Z,20.90
2018-07-07T07:11:32.517Z,20.76
2018-07-07T07:12:32.570Z,20.65
2018-07-07T07:13:32.628Z,20.71
2018-07-07T07:14:32.697Z,20.69
2018-07-07T07:15:32.748Z,21.24
2018-07-07T07:16:32.770Z,21.90
2018-07-07T07:17:32.823Z,21.90
2018-07-07T07:18:32.873Z,21.95
2018-07-07T07:19:32.931Z,22.13
2018-07-07T07:20:33.003Z,22.32
2018-07-07T07:21:33.028Z,23.22
2018-07-07T07:22:33.080Z,23.62
2018-07-07T07:23:33.129Z,24.22
2018-07-07T07:24:33.181Z,24.17
2018-07-07T07:25:33.262Z,24.52
2018-07-07T07:26:33.286Z,24.26
2018-07-07T07:27:33.337Z,24.04
2018-07-07T07:28:33.387Z,23.43
2018-07-07T07:29:33.440Z,22.25
2018-07-07T07:30:33.529Z,21.76
2018-07-07T07:31:33.543Z,21.29
2018-07-07T07:32:33.595Z,20.98
2018-07-07T07:33:33.647Z,20.93
2018-07-07T07:34:33.700Z,20.81
2018-07-07T07:35:33.776Z,21.44
2018-07-07T07:36:33.826Z,21.21
2018-07-07T07:37:33.851Z,20.99
2018-07-07T07:38:33.905Z,20.95
2018-07-07T07:39:33.957Z,20.83
2018-07-07T07:40:34.008Z,20.80
2018-07-07T07:41:34.082Z,20.66
2018-07-07T07:42:34.114Z,20.62
2018-07-07T07:43:34.167Z,20.62
2018-07-07T07:44:34.221Z,20.50
2018-07-07T07:45:34.266Z,20.50
2018-07-07T07:46:34.345Z,20.50
2018-07-07T07:47:34.371Z,20.42
2018-07-07T07:48:34.420Z,20.35
2018-07-07T07:49:34.538Z,20.34
2018-07-07T07:50:34.522Z,20.34
2018-07-07T07:51:34.601Z,20.30
2018-07-07T07:52:34.655Z,20.30
2018-07-07T07:53:34.675Z,20.38
2018-07-07T07:54:35.380Z,20.27
2018-07-07T07:55:34.781Z,20.18
2018-07-07T07:56:34.831Z,20.25
2018-07-07T07:57:34.913Z,20.21
2018-07-07T07:58:34.932Z,20.25
2018-07-07T07:59:34.984Z,20.21
2018-07-07T08:00:35.036Z,20.18
2018-07-07T08:01:35.087Z,20.25
2018-07-07T08:02:35.167Z,20.24
2018-07-07T08:03:35.882Z,20.15
2018-07-07T08:04:35.884Z,20.35
2018-07-07T08:05:35.294Z,20.38
2018-07-07T08:06:36.385Z,20.50
2018-07-07T08:07:35.408Z,20.95
2018-07-07T08:08:35.469Z,21.75
2018-07-07T08:09:35.498Z,22.41
2018-07-07T08:10:35.552Z,23.04
2018-07-07T08:11:35.609Z,23.65
2018-07-07T08:12:35.653Z,23.92
2018-07-07T08:13:35.726Z,24.12
2018-07-07T08:14:35.753Z,24.32
2018-07-07T08:15:35.810Z,24.85
2018-07-07T08:16:35.857Z,25.19
2018-07-07T08:17:35.910Z,25.35
2018-07-07T08:18:36.694Z,25.80
2018-07-07T08:19:36.015Z,25.99
2018-07-07T08:20:36.065Z,25.98
2018-07-07T08:21:36.118Z,26.12
2018-07-07T08:22:36.195Z,26.29
2018-07-07T08:23:36.247Z,26.52
2018-07-07T08:24:36.299Z,26.72
2018-07-07T08:25:36.343Z,26.74
2018-07-07T08:26:36.381Z,26.58
2018-07-07T08:27:36.433Z,25.99
2018-07-07T08:28:36.488Z,25.98
2018-07-07T08:29:36.563Z,25.47
2018-07-07T08:30:36.591Z,24.91
2018-07-07T08:31:36.650Z,24.41
2018-07-07T08:32:36.701Z,24.91
2018-07-07T08:33:36.750Z,25.16
2018-07-07T08:34:36.832Z,25.09
2018-07-07T08:35:36.883Z,24.97
2018-07-07T08:36:36.913Z,25.06
2018-07-07T08:37:36.966Z,25.25
2018-07-07T08:38:37.018Z,25.53
2018-07-07T08:39:37.075Z,25.99
2018-07-07T08:40:37.155Z,26.17
2018-07-07T08:41:37.182Z,25.38
2018-07-07T08:42:37.235Z,24.90
2018-07-07T08:43:37.294Z,24.00
2018-07-07T08:44:37.345Z,23.72
2018-07-07T08:45:37.520Z,24.13
2018-07-07T08:46:37.452Z,24.50
2018-07-07T08:47:37.504Z,24.63
2018-07-07T08:48:37.615Z,24.92
2018-07-07T08:49:39.401Z,24.50
2018-07-07T08:50:37.691Z,24.00
2018-07-07T08:51:37.745Z,24.16
2018-07-07T08:52:37.773Z,24.60
2018-07-07T08:53:37.829Z,25.28
2018-07-07T08:54:37.884Z,25.39
2018-07-07T08:55:37.937Z,25.57
2018-07-07T08:56:38.903Z,25.94
2018-07-07T08:57:38.043Z,25.54
2018-07-07T08:58:38.099Z,24.47
2018-07-07T08:59:38.149Z,24.02
2018-07-07T09:00:38.204Z,23.64
2018-07-07T09:01:38.296Z,24.12
2018-07-07T09:02:38.908Z,24.32
2018-07-07T09:03:38.369Z,24.13
2018-07-07T09:04:38.421Z,23.98
2018-07-07T09:05:38.473Z,24.42
2018-07-07T09:06:38.559Z,24.27
2018-07-07T09:07:38.605Z,24.50
2018-07-07T09:08:38.637Z,25.05
2018-07-07T09:09:38.693Z,25.24
2018-07-07T09:10:38.742Z,25.42
2018-07-07T09:11:38.829Z,25.64
2018-07-07T09:12:38.853Z,25.82
2018-07-07T09:13:38.904Z,26.02
2018-07-07T09:14:38.964Z,26.08
2018-07-07T09:15:39.412Z,25.01
2018-07-07T09:16:39.100Z,24.52
2018-07-07T09:17:39.136Z,24.29
2018-07-07T09:18:39.182Z,24.80
2018-07-07T09:19:39.232Z,25.20
2018-07-07T09:20:39.289Z,24.85
2018-07-07T09:21:39.377Z,24.71
2018-07-07T09:22:39.393Z,24.61
2018-07-07T09:23:41.415Z,24.47
2018-07-07T09:24:39.504Z,24.08
2018-07-07T09:25:39.562Z,24.02
2018-07-07T09:26:39.661Z,23.87
2018-07-07T09:27:40.416Z,23.97
2018-07-07T09:28:39.724Z,24.10
2018-07-07T09:29:39.776Z,24.16
2018-07-07T09:30:39.830Z,23.95
2018-07-07T09:31:39.917Z,23.87
2018-07-07T09:32:39.939Z,24.04
2018-07-07T09:33:39.991Z,24.01
2018-07-07T09:34:40.047Z,24.10
2018-07-07T09:35:40.106Z,24.41
2018-07-07T09:36:40.185Z,24.80
2018-07-07T09:37:40.953Z,24.87
2018-07-07T09:38:40.272Z,25.28
2018-07-07T09:39:41.427Z,25.19
2018-07-07T09:40:40.374Z,24.95
2018-07-07T09:41:40.425Z,24.31
2018-07-07T09:42:41.423Z,24.07
2018-07-07T09:43:42.423Z,24.24
2018-07-07T09:44:40.623Z,24.13
2018-07-07T09:45:40.644Z,24.12
2018-07-07T09:46:40.701Z,24.68
2018-07-07T09:47:40.755Z,25.09
2018-07-07T09:48:41.450Z,25.62
2018-07-07T09:49:40.887Z,25.99
2018-07-07T09:50:40.924Z,24.77
2018-07-07T09:51:41.431Z,25.05
2018-07-07T09:52:41.054Z,25.37
2018-07-07T09:53:41.082Z,25.07
2018-07-07T09:54:41.140Z,25.22
2018-07-07T09:55:41.217Z,25.50
2018-07-07T09:56:41.246Z,25.90
2018-07-07T09:57:41.930Z,26.25
2018-07-07T09:58:41.359Z,26.06
2018-07-07T09:59:41.412Z,26.20
2018-07-07T10:00:41.467Z,25.61
2018-07-07T10:01:41.522Z,25.34
2018-07-07T10:02:41.615Z,24.94
2018-07-07T10:03:41.637Z,24.75
2018-07-07T10:04:41.690Z,24.53
2018-07-07T10:05:41.785Z,24.41
2018-07-07T10:06:41.802Z,24.24
2018-07-07T10:07:41.953Z,24.14
2018-07-07T10:08:41.918Z,23.98
2018-07-07T10:09:41.965Z,23.75
2018-07-07T10:10:42.468Z,22.94
2018-07-07T10:11:42.074Z,22.52
2018-07-07T10:12:42.160Z,22.10
2018-07-07T10:13:42.207Z,22.25
2018-07-07T10:14:42.236Z,22.47
2018-07-07T10:15:42.294Z,23.24
2018-07-07T10:16:42.345Z,23.50
2018-07-07T10:17:42.399Z,23.97
2018-07-07T10:18:42.484Z,23.71
2018-07-07T10:19:43.439Z,23.79
2018-07-07T10:20:42.568Z,24.16
2018-07-07T10:21:43.483Z,24.75
2018-07-07T10:22:42.669Z,24.45
2018-07-07T10:23:42.762Z,24.94
2018-07-07T10:24:42.787Z,24.60
2018-07-07T10:25:42.831Z,24.90
2018-07-07T10:26:42.886Z,24.76
2018-07-07T10:27:42.941Z,25.00
2018-07-07T10:28:43.019Z,25.54
2018-07-07T10:29:43.051Z,25.38
2018-07-07T10:30:43.105Z,25.38
2018-07-07T10:31:43.160Z,25.87
2018-07-07T10:32:43.217Z,26.29
2018-07-07T10:33:43.295Z,25.64
2018-07-07T10:34:43.324Z,25.54
2018-07-07T10:35:43.377Z,26.11
2018-07-07T10:36:43.437Z,26.49
2018-07-07T10:37:43.489Z,26.92
2018-07-07T10:38:43.584Z,27.04
2018-07-07T10:39:43.600Z,27.29
2018-07-07T10:40:43.654Z,27.50
2018-07-07T10:41:43.709Z,27.59
2018-07-07T10:42:43.768Z,27.33
2018-07-07T10:43:43.850Z,27.32
2018-07-07T10:44:43.876Z,26.32
2018-07-07T10:45:44.030Z,25.59
2018-07-07T10:46:43.987Z,25.69
2018-07-07T10:47:44.044Z,25.43
2018-07-07T10:48:44.132Z,24.61
2018-07-07T10:49:44.155Z,24.61
2018-07-07T10:50:44.212Z,24.98
2018-07-07T10:51:44.269Z,25.54
2018-07-07T10:52:44.325Z,26.20
2018-07-07T10:53:44.416Z,26.20
2018-07-07T10:54:44.434Z,26.31
2018-07-07T10:55:44.490Z,26.86
2018-07-07T10:56:44.547Z,27.23
2018-07-07T10:57:44.607Z,26.84
2018-07-07T10:58:44.738Z,26.81
2018-07-07T10:59:44.720Z,26.52
2018-07-07T11:00:44.795Z,25.89
2018-07-07T11:01:44.837Z,25.93
2018-07-07T11:02:44.886Z,26.12
2018-07-07T11:03:44.944Z,26.31
2018-07-07T11:04:44.998Z,26.35
2018-07-07T11:05:45.094Z,26.29
2018-07-07T11:06:45.110Z,26.09
2018-07-07T11:07:45.173Z,26.22
2018-07-07T11:08:45.232Z,26.09
2018-07-07T11:09:45.281Z,26.29
2018-07-07T11:10:45.369Z,25.69
2018-07-07T11:11:45.449Z,25.07
2018-07-07T11:12:45.447Z,25.09
2018-07-07T11:13:45.504Z,25.59
2018-07-07T11:14:45.563Z,25.97
2018-07-07T11:15:45.648Z,26.29
2018-07-07T11:16:45.676Z,26.27
2018-07-07T11:17:45.743Z,25.98
2018-07-07T11:18:45.783Z,25.82
2018-07-07T11:19:45.846Z,25.84
2018-07-07T11:20:45.926Z,26.12
2018-07-07T11:21:45.969Z,26.50
2018-07-07T11:22:46.009Z,26.44
2018-07-07T11:23:46.073Z,26.29
2018-07-07T11:24:46.118Z,25.64
2018-07-07T11:25:46.217Z,25.98
2018-07-07T11:26:46.233Z,26.39
2018-07-07T11:27:46.287Z,26.81
2018-07-07T11:28:46.343Z,27.10
2018-07-07T11:29:46.431Z,27.26
2018-07-07T11:30:46.479Z,27.62
2018-07-07T11:31:46.512Z,27.80
2018-07-07T11:32:46.593Z,27.95
2018-07-07T11:33:46.624Z,27.77
2018-07-07T11:34:46.681Z,27.88
2018-07-07T11:35:46.738Z,27.84
2018-07-07T11:36:46.973Z,27.86
2018-07-07T11:37:46.850Z,27.86
2018-07-07T11:38:46.908Z,27.80
2018-07-07T11:39:46.963Z,27.73
2018-07-07T11:40:47.019Z,27.82
2018-07-07T11:41:47.103Z,27.84
2018-07-07T11:42:47.159Z,27.11
2018-07-07T11:43:47.191Z,26.55
2018-07-07T11:44:47.251Z,26.57
2018-07-07T11:45:47.305Z,26.37
2018-07-07T11:46:47.362Z,26.80
2018-07-07T11:47:47.444Z,26.35
2018-07-07T11:48:47.478Z,25.79
2018-07-07T11:49:47.534Z,25.86
2018-07-07T11:50:47.593Z,25.93
2018-07-07T11:51:47.649Z,26.28
2018-07-07T11:52:47.733Z,26.68
2018-07-07T11:53:47.760Z,27.17
2018-07-07T11:54:47.818Z,27.38
2018-07-07T11:55:47.875Z,27.84
2018-07-07T11:56:47.936Z,28.13
2018-07-07T11:57:48.014Z,28.28
2018-07-07T11:58:48.050Z,28.44
2018-07-07T11:59:48.109Z,28.54
2018-07-07T12:00:48.164Z,28.56
2018-07-07T12:01:48.220Z,28.85
2018-07-07T12:02:48.298Z,28.96
2018-07-07T12:03:48.335Z,29.18
2018-07-07T12:04:48.409Z,29.20
2018-07-07T12:05:48.449Z,28.78
2018-07-07T12:06:48.508Z,28.48
2018-07-07T12:08:00.664Z,28.06
2018-07-07T12:08:48.646Z,27.67
2018-07-07T12:09:48.680Z,27.66
2018-07-07T12:10:48.741Z,27.73
2018-07-07T12:11:48.797Z,27.62
2018-07-07T12:12:48.880Z,27.77
2018-07-07T12:13:48.937Z,27.98
2018-07-07T12:14:48.973Z,28.10
2018-07-07T12:15:49.038Z,28.36
2018-07-07T12:16:49.089Z,28.53
2018-07-07T12:17:49.152Z,28.22
2018-07-07T12:18:49.228Z,26.98
2018-07-07T12:19:49.291Z,27.02
2018-07-07T12:20:49.324Z,27.17
2018-07-07T12:21:49.382Z,27.28
2018-07-07T12:22:49.439Z,27.59
2018-07-07T12:23:50.301Z,27.67
2018-07-07T12:24:49.611Z,27.88
2018-07-07T12:25:49.613Z,27.80
2018-07-07T12:26:49.679Z,27.89
2018-07-07T12:27:49.733Z,28.01
2018-07-07T12:28:49.792Z,28.28
2018-07-07T12:29:49.888Z,28.29
2018-07-07T12:30:49.908Z,28.33
2018-07-07T12:31:49.966Z,28.26
2018-07-07T12:32:50.025Z,28.33
2018-07-07T12:33:50.082Z,28.11
2018-07-07T12:34:50.165Z,28.16
2018-07-07T12:35:50.199Z,28.10
2018-07-07T12:36:50.262Z,27.86
2018-07-07T12:37:50.344Z,27.84
2018-07-07T12:38:50.380Z,28.19
2018-07-07T12:39:50.461Z,28.47
2018-07-07T12:40:50.565Z,28.81
2018-07-07T12:41:50.552Z,28.87
2018-07-07T12:42:50.612Z,28.80
2018-07-07T12:43:50.672Z,28.51
2018-07-07T12:44:50.751Z,28.77
2018-07-07T12:45:50.816Z,29.03
2018-07-07T12:46:50.849Z,28.90
2018-07-07T12:47:50.907Z,29.11
2018-07-07T12:48:50.967Z,29.13
2018-07-07T12:49:51.030Z,28.51
2018-07-07T12:50:51.117Z,28.17
2018-07-07T12:51:51.201Z,28.01
2018-07-07T12:52:51.204Z,27.51